createdAt,value
2022-11-09T00:02:16.543Z,99997.38
2022-11-09T00:04:43.021Z,99991.84
2022-11-09T00:07:09.405Z,99986.84
2022-11-09T00:09:35.850Z,99994.50
2022-11-09T00:12:04.767Z,99983.78
2022-11-09T00:14:31.047Z,99990.00
2022-11-09T00:16:57.329Z,99985.66
2022-11-09T00:19:23.583Z,99994.69
2022-11-09T00:21:49.853Z,99996.78
2022-11-09T00:24:16.124Z,100003.72
2022-11-09T00:26:44.204Z,100003.06
2022-11-09T00:29:10.383Z,100000.63
2022-11-09T00:31:36.667Z,100009.41
2022-11-09T00:34:02.935Z,100010.44
2022-11-09T00:36:29.307Z,100006.84
2022-11-09T00:38:55.568Z,100004.63
2022-11-09T00:41:21.839Z,100003.69
2022-11-09T00:43:48.098Z,100001.94
2022-11-09T00:46:14.417Z,100006.81
2022-11-09T00:48:40.761Z,100002.06
2022-11-09T00:51:07.023Z,100009.28
2022-11-09T00:53:33.296Z,100005.88
2022-11-09T00:55:59.568Z,100012.19
2022-11-09T00:58:25.850Z,100011.16
2022-11-09T01:00:52.480Z,100021.31
2022-11-09T01:03:20.515Z,100011.56
2022-11-09T01:05:47.098Z,100016.06
2022-11-09T01:08:13.442Z,100015.84
2022-11-09T01:10:39.704Z,100019.59
2022-11-09T01:13:06.011Z,100012.50
2022-11-09T01:15:33.258Z,100014.38
2022-11-09T01:17:59.520Z,100017.88
2022-11-09T01:20:25.798Z,100018.78
2022-11-09T01:22:52.072Z,100017.97
2022-11-09T01:25:18.551Z,100014.38
2022-11-09T01:27:44.812Z,100016.63
2022-11-09T01:30:11.079Z,100016.94
2022-11-09T01:32:37.353Z,100010.88
2022-11-09T01:35:03.623Z,100015.41
2022-11-09T01:37:29.895Z,100013.31
2022-11-09T01:39:56.156Z,100013.44
2022-11-09T01:42:22.739Z,100011.63
2022-11-09T01:44:48.999Z,100019.34
2022-11-09T01:47:15.251Z,100010.97
2022-11-09T01:49:41.506Z,100006.56
2022-11-09T01:52:07.763Z,100002.19
2022-11-09T01:54:34.034Z,100004.31
2022-11-09T01:57:00.293Z,100009.25
2022-11-09T01:59:26.542Z,100004.22
2022-11-09T02:01:52.804Z,100011.63
2022-11-09T02:04:19.079Z,100017.63
2022-11-09T02:06:45.451Z,100017.75
2022-11-09T02:09:12.459Z,100019.28
2022-11-09T02:11:38.723Z,100008.84
2022-11-09T02:14:04.975Z,100012.91
2022-11-09T02:16:31.288Z,100016.16
2022-11-09T02:18:57.580Z,100015.06
2022-11-09T02:21:24.034Z,100006.81
2022-11-09T02:23:50.302Z,100002.53
2022-11-09T02:26:16.584Z,100011.13
2022-11-09T02:28:42.839Z,99996.63
2022-11-09T02:31:09.301Z,100002.97
2022-11-09T02:33:35.560Z,99999.91
2022-11-09T02:36:01.826Z,99989.06
2022-11-09T02:38:28.097Z,100003.22
2022-11-09T02:40:54.366Z,99990.53
2022-11-09T02:43:20.866Z,99994.94
2022-11-09T02:45:47.444Z,99992.59
2022-11-09T02:48:13.794Z,99989.06
2022-11-09T02:50:40.054Z,99990.53
2022-11-09T02:53:06.451Z,99991.28
2022-11-09T02:55:32.698Z,99979.34
2022-11-09T02:57:59.163Z,99975.53
2022-11-09T03:00:25.423Z,99984.84
2022-11-09T03:02:51.687Z,99985.44
2022-11-09T03:05:17.958Z,99982.66
2022-11-09T03:07:44.254Z,99978.28
2022-11-09T03:10:12.140Z,99978.56
2022-11-09T03:12:38.462Z,99983.00
2022-11-09T03:15:04.808Z,99986.03
2022-11-09T03:17:31.072Z,99981.00
2022-11-09T03:19:57.539Z,99992.13
2022-11-09T03:22:23.803Z,99986.72
2022-11-09T03:24:50.102Z,99982.66
2022-11-09T03:27:16.398Z,99974.09
2022-11-09T03:29:42.660Z,99979.03
2022-11-09T03:32:08.920Z,99979.06
2022-11-09T03:34:35.251Z,99982.31
2022-11-09T03:37:01.553Z,99979.69
2022-11-09T03:39:27.981Z,99979.06
2022-11-09T03:41:54.236Z,99979.19
2022-11-09T03:44:20.577Z,99972.78
2022-11-09T03:46:46.839Z,99981.19
2022-11-09T03:49:13.315Z,99972.25
2022-11-09T03:51:39.571Z,99979.63
2022-11-09T03:54:05.850Z,99988.19
2022-11-09T03:56:32.105Z,99979.13
2022-11-09T03:58:58.518Z,99985.66
2022-11-09T04:01:24.821Z,99986.25
2022-11-09T04:03:51.242Z,99986.06
2022-11-09T04:06:17.503Z,99980.81
2022-11-09T04:08:48.381Z,99974.78
2022-11-09T04:11:17.294Z,99974.03
2022-11-09T04:13:43.628Z,99982.66
2022-11-09T04:16:09.902Z,99994.22
2022-11-09T04:18:36.259Z,99982.53
2022-11-09T04:21:02.517Z,99988.31
2022-11-09T04:23:28.806Z,99986.06
2022-11-09T04:25:55.067Z,99983.84
2022-11-09T04:28:21.318Z,99980.19
2022-11-09T04:30:47.603Z,99979.75
2022-11-09T04:33:14.055Z,99985.66
2022-11-09T04:35:40.317Z,99979.44
2022-11-09T04:38:06.627Z,99977.19
2022-11-09T04:40:33.026Z,99987.72
2022-11-09T04:42:59.300Z,99983.25
2022-11-09T04:45:25.558Z,99979.56
2022-11-09T04:47:51.812Z,99978.66
2022-11-09T04:50:18.084Z,99987.25
2022-11-09T04:52:44.346Z,99977.28
2022-11-09T04:55:11.105Z,99985.94
2022-11-09T04:57:37.380Z,99976.53
2022-11-09T05:00:03.649Z,99980.41
2022-11-09T05:02:29.915Z,99982.22
2022-11-09T05:04:56.183Z,99985.22
2022-11-09T05:07:22.434Z,99974.88
2022-11-09T05:09:48.690Z,99981.31
2022-11-09T05:12:14.950Z,99977.38
2022-11-09T05:14:41.211Z,99971.81
2022-11-09T05:17:08.734Z,99972.34
2022-11-09T05:19:34.992Z,99980.56
2022-11-09T05:22:19.772Z,99978.69
2022-11-09T05:24:46.148Z,99989.78
2022-11-09T05:27:12.680Z,99991.09
2022-11-09T05:29:38.940Z,99993.53
2022-11-09T05:32:05.206Z,99994.72
2022-11-09T05:34:31.463Z,99995.59
2022-11-09T05:37:03.133Z,100015.28
2022-11-09T05:39:29.846Z,100025.38
2022-11-09T05:41:56.124Z,100018.41
2022-11-09T05:44:22.387Z,100009.34
2022-11-09T05:46:48.684Z,100002.56
2022-11-09T05:49:14.935Z,100014.91
2022-11-09T05:51:41.204Z,100031.81
2022-11-09T05:54:07.467Z,100026.53
2022-11-09T05:56:33.737Z,100022.00
2022-11-09T05:58:59.998Z,100036.09
2022-11-09T06:01:26.344Z,100048.53
2022-11-09T06:03:52.612Z,100045.81
2022-11-09T06:06:18.866Z,100030.72
2022-11-09T06:08:45.180Z,100024.50
2022-11-09T06:11:11.477Z,100027.09
2022-11-09T06:13:37.809Z,100027.44
2022-11-09T06:16:04.155Z,100020.66
2022-11-09T06:18:30.415Z,100013.69
2022-11-09T06:20:57.156Z,100025.28
2022-11-09T06:23:25.597Z,100035.47
2022-11-09T06:25:51.872Z,100027.72
2022-11-09T06:28:18.161Z,100034.06
2022-11-09T06:30:44.426Z,100036.75
2022-11-09T06:33:10.696Z,100043.88
2022-11-09T06:35:37.320Z,100040.44
2022-11-09T06:38:03.607Z,100045.31
2022-11-09T06:40:30.069Z,100048.41
2022-11-09T06:42:56.523Z,100043.81
2022-11-09T06:45:22.782Z,100046.56
2022-11-09T06:47:49.039Z,100032.13
2022-11-09T06:50:15.366Z,100039.94
2022-11-09T06:52:41.677Z,100042.59
2022-11-09T06:55:08.279Z,100042.69
2022-11-09T06:57:38.074Z,100044.97
2022-11-09T07:00:04.342Z,100060.19
2022-11-09T07:02:30.651Z,100052.69
2022-11-09T07:04:56.968Z,100054.75
2022-11-09T07:07:28.031Z,100059.00
2022-11-09T07:09:55.768Z,100059.53
2022-11-09T07:12:22.155Z,100050.84
2022-11-09T07:14:48.411Z,100060.19
2022-11-09T07:17:14.686Z,100065.72
2022-11-09T07:19:40.936Z,100064.38
2022-11-09T07:22:07.206Z,100065.31
2022-11-09T07:24:33.466Z,100056.94
2022-11-09T07:26:59.722Z,100062.63
2022-11-09T07:29:26.001Z,100057.94
2022-11-09T07:31:52.270Z,100063.97
2022-11-09T07:34:18.541Z,100073.00
2022-11-09T07:36:44.817Z,100073.34
2022-11-09T07:39:11.111Z,100073.28
2022-11-09T07:41:37.379Z,100080.00
2022-11-09T07:44:03.664Z,100093.28
2022-11-09T07:46:29.951Z,100090.03
2022-11-09T07:48:56.210Z,100092.06
2022-11-09T07:51:22.466Z,100077.22
2022-11-09T07:53:48.778Z,100088.03
2022-11-09T07:56:15.035Z,100083.28
2022-11-09T07:58:41.326Z,100086.75
2022-11-09T08:01:08.405Z,100097.19
2022-11-09T08:03:34.612Z,100087.56
2022-11-09T08:06:00.890Z,100084.94
2022-11-09T08:08:27.157Z,100095.41
2022-11-09T08:10:53.563Z,100094.31
2022-11-09T08:13:20.141Z,100094.94
2022-11-09T08:15:47.523Z,100102.22
2022-11-09T08:18:13.720Z,100102.16
2022-11-09T08:20:39.982Z,100110.75
2022-11-09T08:23:06.344Z,100118.16
2022-11-09T08:25:32.660Z,100110.97
2022-11-09T08:27:58.959Z,100107.25
2022-11-09T08:30:25.230Z,100103.72
2022-11-09T08:32:51.536Z,100099.94
2022-11-09T08:35:17.971Z,100106.25
2022-11-09T08:37:44.291Z,100099.53
2022-11-09T08:40:10.679Z,100090.81
2022-11-09T08:42:36.951Z,100107.22
2022-11-09T08:45:03.333Z,100106.91
2022-11-09T08:47:29.646Z,100089.78
2022-11-09T08:49:55.904Z,100098.19
2022-11-09T08:52:22.472Z,100097.50
2022-11-09T08:54:48.736Z,100094.88
2022-11-09T08:57:15.057Z,100091.84
2022-11-09T08:59:41.328Z,100093.56
2022-11-09T09:02:07.651Z,100100.91
2022-11-09T09:04:33.988Z,100102.16
2022-11-09T09:07:00.426Z,100105.34
2022-11-09T09:09:27.115Z,100105.56
2022-11-09T09:11:53.370Z,100106.47
2022-11-09T09:14:19.655Z,100105.34
2022-11-09T09:16:45.917Z,100098.81
2022-11-09T09:19:12.193Z,100112.50
2022-11-09T09:21:38.492Z,100108.56
2022-11-09T09:24:04.767Z,100111.34
2022-11-09T09:26:31.295Z,100107.81
2022-11-09T09:28:57.547Z,100104.34
2022-11-09T09:31:24.070Z,100106.88
2022-11-09T09:33:50.391Z,100113.09
2022-11-09T09:36:16.674Z,100111.81
2022-11-09T09:38:42.937Z,100109.94
2022-11-09T09:41:09.191Z,100108.06
2022-11-09T09:43:41.542Z,100110.00
2022-11-09T09:46:09.200Z,100109.72
2022-11-09T09:48:35.634Z,100104.31
2022-11-09T09:51:01.958Z,100097.53
2022-11-09T09:53:28.325Z,100096.09
2022-11-09T09:55:54.663Z,100100.75
2022-11-09T09:58:21.232Z,100104.19
2022-11-09T10:00:47.834Z,100095.06
2022-11-09T10:03:14.391Z,100091.31
2022-11-09T10:05:40.659Z,100085.47
2022-11-09T10:08:06.947Z,100084.69
2022-11-09T10:10:33.221Z,100083.16
2022-11-09T10:12:59.570Z,100078.09
2022-11-09T10:15:25.826Z,100067.38
2022-11-09T10:17:52.082Z,100064.69
2022-11-09T10:20:18.340Z,100065.47
2022-11-09T10:22:45.619Z,100057.13
2022-11-09T10:25:37.573Z,100055.38
2022-11-09T10:28:01.249Z,100062.91
2022-11-09T10:30:27.589Z,100058.16
2022-11-09T10:32:53.850Z,100049.97
2022-11-09T10:35:20.611Z,100048.88
2022-11-09T10:37:48.190Z,100043.59
2022-11-09T10:40:16.743Z,100054.59
2022-11-09T10:42:43.023Z,100059.53
2022-11-09T10:45:09.315Z,100056.84
2022-11-09T10:47:36.613Z,100057.38
2022-11-09T10:50:02.871Z,100060.94
2022-11-09T10:52:29.277Z,100061.59
2022-11-09T10:54:55.601Z,100059.19
2022-11-09T10:57:21.904Z,100048.78
2022-11-09T10:59:48.161Z,100037.44
2022-11-09T11:02:14.495Z,100039.03
2022-11-09T11:04:40.822Z,100047.09
2022-11-09T11:07:07.165Z,100050.75
2022-11-09T11:09:33.581Z,100041.09
2022-11-09T11:11:59.846Z,100040.63
2022-11-09T11:14:26.173Z,100033.41
2022-11-09T11:16:53.256Z,100029.38
2022-11-09T11:19:19.691Z,100031.81
2022-11-09T11:21:45.964Z,100030.09
2022-11-09T11:24:12.337Z,100030.59
2022-11-09T11:26:38.620Z,100029.25
2022-11-09T11:29:04.959Z,100022.75
2022-11-09T11:31:31.238Z,100030.72
2022-11-09T11:33:57.615Z,100032.41
2022-11-09T11:36:23.915Z,100026.34
2022-11-09T11:38:50.243Z,100023.50
2022-11-09T11:41:16.617Z,100023.13
2022-11-09T11:43:42.891Z,100034.78
2022-11-09T11:46:09.166Z,100030.09
2022-11-09T11:48:35.791Z,100032.66
2022-11-09T11:51:02.107Z,100030.34
2022-11-09T11:53:28.438Z,100016.06
2022-11-09T11:55:54.704Z,100012.44
2022-11-09T11:58:21.038Z,100020.06
2022-11-09T12:00:47.534Z,100022.63
2022-11-09T12:03:15.023Z,100017.72
2022-11-09T12:05:41.382Z,100025.22
2022-11-09T12:08:11.020Z,100026.44
2022-11-09T12:10:37.893Z,100020.06
2022-11-09T12:13:04.170Z,100021.91
2022-11-09T12:15:30.487Z,100015.56
2022-11-09T12:17:56.786Z,100014.94
2022-11-09T12:20:23.102Z,100020.34
2022-11-09T12:22:53.168Z,100004.78
2022-11-09T12:25:19.543Z,100018.59
2022-11-09T12:27:45.811Z,100023.03
2022-11-09T12:30:12.935Z,100022.41
2022-11-09T12:32:39.135Z,100009.22
2022-11-09T12:35:05.405Z,100002.38
2022-11-09T12:37:31.662Z,100007.00
2022-11-09T12:39:57.982Z,100004.59
2022-11-09T12:45:30.351Z,100011.66
2022-11-09T12:47:57.861Z,100015.31
2022-11-09T12:50:27.931Z,100018.03
2022-11-09T12:52:54.252Z,100024.84
2022-11-09T12:55:20.595Z,100020.81
2022-11-09T12:57:46.864Z,100012.75
2022-11-09T13:00:13.198Z,100003.34
2022-11-09T13:02:39.485Z,100034.41
2022-11-09T13:05:05.764Z,100029.72
2022-11-09T13:07:32.203Z,100031.16
2022-11-09T13:09:58.528Z,100029.44
2022-11-09T13:12:24.797Z,100025.88
2022-11-09T13:14:51.088Z,100027.88
2022-11-09T13:17:17.378Z,100028.97
2022-11-09T13:19:43.772Z,100027.25
2022-11-09T13:22:10.036Z,100029.97
2022-11-09T13:24:36.304Z,100023.38
2022-11-09T13:27:02.750Z,100022.53
2022-11-09T13:29:29.061Z,100022.03
2022-11-09T13:31:55.326Z,100015.69
2022-11-09T13:34:21.620Z,100014.28
2022-11-09T13:36:50.838Z,100019.47
2022-11-09T13:39:17.127Z,100024.56
2022-11-09T13:41:43.449Z,100027.28
2022-11-09T13:44:09.706Z,100026.94
2022-11-09T13:46:35.985Z,100030.09
2022-11-09T13:49:02.264Z,100029.72
2022-11-09T13:51:28.797Z,100026.28
2022-11-09T13:53:55.067Z,100029.34
2022-11-09T13:56:26.122Z,100029.34
2022-11-09T13:58:53.633Z,100024.72
2022-11-09T14:01:19.936Z,100025.81
2022-11-09T14:03:46.504Z,100029.63
2022-11-09T14:06:13.508Z,100034.41
2022-11-09T14:08:40.866Z,100037.19
2022-11-09T14:14:02.074Z,100037.31
2022-11-09T14:16:29.600Z,100042.56
2022-11-09T14:18:56.213Z,100041.94
2022-11-09T14:21:22.771Z,100047.88
2022-11-09T14:23:49.292Z,100051.72
2022-11-09T14:26:15.599Z,100055.25
2022-11-09T14:31:31.898Z,100059.84
2022-11-09T14:33:58.167Z,100053.19
2022-11-09T14:36:24.431Z,100057.13
2022-11-09T14:38:50.759Z,100059.72
2022-11-09T14:41:17.045Z,100051.63
2022-11-09T14:43:43.309Z,100046.16
2022-11-09T14:48:59.542Z,100056.97
2022-11-09T14:51:25.806Z,100064.00
2022-11-09T14:53:52.145Z,100066.22
2022-11-09T14:56:18.400Z,100079.53
2022-11-09T14:58:48.195Z,100071.22
2022-11-09T15:01:14.455Z,100073.78
2022-11-09T15:03:40.721Z,100071.31
2022-11-09T15:06:07.350Z,100065.69
2022-11-09T15:08:33.759Z,100069.97
2022-11-09T15:11:00.053Z,100071.13
2022-11-09T15:13:26.325Z,100076.13
2022-11-09T15:15:55.896Z,100080.75
2022-11-09T15:18:22.859Z,100081.94
2022-11-09T15:20:49.757Z,100085.75
2022-11-09T15:23:16.029Z,100082.38
2022-11-09T15:25:42.297Z,100083.88
2022-11-09T15:28:08.573Z,100091.28
2022-11-09T15:30:34.893Z,100086.69
2022-11-09T15:33:01.161Z,100089.50
2022-11-09T15:35:27.424Z,100090.66
2022-11-09T15:37:54.752Z,100086.47
2022-11-09T15:40:21.036Z,100090.88
2022-11-09T15:42:47.312Z,100096.09
2022-11-09T15:45:13.600Z,100098.63
2022-11-09T15:47:39.960Z,100098.47
2022-11-09T15:50:06.276Z,100107.47
2022-11-09T15:52:32.592Z,100116.44
2022-11-09T15:54:58.849Z,100114.75
2022-11-09T15:57:25.133Z,100113.50
2022-11-09T15:59:51.416Z,100133.19
2022-11-09T16:02:22.908Z,100129.66
2022-11-09T16:04:49.176Z,100127.97
2022-11-09T16:07:15.509Z,100129.50
2022-11-09T16:09:41.885Z,100136.63
2022-11-09T16:12:08.183Z,100149.06
2022-11-09T16:14:34.456Z,100147.34
2022-11-09T16:17:00.718Z,100143.34
2022-11-09T16:19:28.997Z,100151.88
2022-11-09T16:21:55.263Z,100144.91
2022-11-09T16:24:21.586Z,100142.69
2022-11-09T16:26:47.908Z,100147.44
2022-11-09T16:29:14.185Z,100151.78
2022-11-09T16:31:51.292Z,100157.91
2022-11-09T16:34:17.907Z,100151.38
2022-11-09T16:36:50.844Z,100151.28
2022-11-09T16:39:18.721Z,100151.38
2022-11-09T16:41:44.987Z,100155.25
2022-11-09T16:44:11.253Z,100150.63
2022-11-09T16:46:37.524Z,100162.63
2022-11-09T16:49:04.015Z,100154.56
2022-11-09T16:51:30.278Z,100157.81
2022-11-09T16:53:56.530Z,100157.50
2022-11-09T16:56:22.790Z,100153.91
2022-11-09T16:58:49.052Z,100161.16
2022-11-09T17:01:17.717Z,100163.50
2022-11-09T17:03:48.455Z,100153.13
2022-11-09T17:06:15.064Z,100160.66
2022-11-09T17:08:41.328Z,100158.16
2022-11-09T17:11:07.776Z,100157.97
2022-11-09T17:13:34.047Z,100167.44
2022-11-09T17:16:00.298Z,100165.00
2022-11-09T17:18:26.616Z,100166.50
2022-11-09T17:20:52.888Z,100173.22
2022-11-09T17:23:19.213Z,100166.03
2022-11-09T17:25:45.475Z,100173.72
2022-11-09T17:28:11.743Z,100165.38
2022-11-09T17:30:37.995Z,100168.94
2022-11-09T17:33:04.283Z,100171.44
2022-11-09T17:35:36.371Z,100177.22
2022-11-09T17:38:02.627Z,100176.59
2022-11-09T17:40:28.898Z,100186.72
2022-11-09T17:42:56.907Z,100171.63
2022-11-09T17:45:26.842Z,100161.06
2022-11-09T17:47:53.089Z,100170.25
2022-11-09T17:50:21.199Z,100175.00
2022-11-09T17:52:47.392Z,100174.47
2022-11-09T17:55:13.640Z,100181.00
2022-11-09T17:57:39.904Z,100187.56
2022-11-09T18:00:06.382Z,100188.38
2022-11-09T18:02:33.929Z,100175.63
2022-11-09T18:07:50.964Z,100188.84
2022-11-09T18:10:17.232Z,100192.28
2022-11-09T18:12:43.610Z,100198.59
2022-11-09T18:15:09.875Z,100201.44
2022-11-09T18:17:36.304Z,100203.28
2022-11-09T18:20:02.568Z,100200.25
2022-11-09T18:22:28.825Z,100201.63
2022-11-09T18:24:55.097Z,100190.03
2022-11-09T18:27:23.775Z,100189.09
2022-11-09T18:29:56.212Z,100188.94
2022-11-09T18:32:22.495Z,100193.53
2022-11-09T18:34:48.755Z,100189.94
2022-11-09T18:37:15.020Z,100197.31
2022-11-09T18:39:41.296Z,100198.19
2022-11-09T18:42:07.586Z,100189.34
2022-11-09T18:44:33.943Z,100194.31
2022-11-09T18:47:05.044Z,100198.94
2022-11-09T18:49:31.966Z,100202.75
2022-11-09T18:51:59.038Z,100194.97
2022-11-09T18:54:25.252Z,100194.00
2022-11-09T18:56:51.524Z,100196.53
2022-11-09T18:59:17.783Z,100194.63
2022-11-09T19:01:44.051Z,100198.66
2022-11-09T19:04:11.408Z,100199.53
2022-11-09T19:06:37.713Z,100197.63
2022-11-09T19:09:22.784Z,100206.19
2022-11-09T19:11:49.072Z,100211.84
2022-11-09T19:14:15.341Z,100203.66
2022-11-09T19:16:41.600Z,100210.25
2022-11-09T19:19:07.859Z,100207.19
2022-11-09T19:21:37.844Z,100213.94
2022-11-09T19:24:04.100Z,100214.19
2022-11-09T19:26:30.410Z,100223.38
2022-11-09T19:28:56.679Z,100215.84
2022-11-09T19:31:22.961Z,100222.66
2022-11-09T19:33:49.421Z,100223.81
2022-11-09T19:36:29.796Z,100227.38
2022-11-09T19:38:57.449Z,100219.97
2022-11-09T19:41:24.659Z,100231.41
2022-11-09T19:43:50.915Z,100235.00
2022-11-09T19:46:17.245Z,100237.75
2022-11-09T19:48:43.512Z,100239.72
2022-11-09T19:51:09.962Z,100241.31
2022-11-09T19:53:42.027Z,100234.94
2022-11-09T19:56:08.739Z,100248.66
2022-11-09T19:58:35.003Z,100240.72
2022-11-09T20:01:01.300Z,100237.91
2022-11-09T20:03:27.598Z,100239.88
2022-11-09T20:05:53.850Z,100245.81
2022-11-09T20:08:20.385Z,100249.53
2022-11-09T20:10:46.896Z,100253.47
2022-11-09T20:13:13.248Z,100251.72
2022-11-09T20:15:39.510Z,100250.38
2022-11-09T20:18:05.778Z,100252.09
2022-11-09T20:20:34.029Z,100252.44
2022-11-09T20:23:00.367Z,100246.94
2022-11-09T20:25:26.778Z,100249.38
2022-11-09T20:27:53.045Z,100250.38
2022-11-09T20:30:19.524Z,100255.84
2022-11-09T20:32:45.788Z,100255.16
2022-11-09T20:35:12.099Z,100258.53
2022-11-09T20:37:38.379Z,100246.94
2022-11-09T20:40:07.846Z,100253.88
2022-11-09T20:42:34.104Z,100256.75
2022-11-09T20:45:00.377Z,100258.53
2022-11-09T20:47:57.195Z,100258.78
2022-11-09T20:50:13.790Z,100265.44
2022-11-09T20:52:39.979Z,100272.31
2022-11-09T20:55:06.807Z,100270.88
2022-11-09T20:57:33.069Z,100269.72
2022-11-09T20:59:59.930Z,100266.81
2022-11-09T21:02:26.203Z,100265.72
2022-11-09T21:04:52.463Z,100271.94
2022-11-09T21:07:18.731Z,100276.75
2022-11-09T21:09:44.996Z,100268.88
2022-11-09T21:12:24.690Z,100277.00
2022-11-09T21:14:51.072Z,100279.44
2022-11-09T21:17:17.353Z,100285.59
2022-11-09T21:19:43.601Z,100285.06
2022-11-09T21:22:10.029Z,100297.84
2022-11-09T21:24:55.127Z,100301.47
2022-11-09T21:27:44.217Z,100303.47
2022-11-09T21:30:14.350Z,100311.63
2022-11-09T21:32:40.599Z,100303.66
2022-11-09T21:35:07.149Z,100303.81
2022-11-09T21:37:33.424Z,100296.25
2022-11-09T21:39:59.855Z,100300.56
2022-11-09T21:42:26.150Z,100301.03
2022-11-09T21:44:52.416Z,100306.09
2022-11-09T21:47:18.743Z,100304.31
2022-11-09T21:49:45.026Z,100304.75
2022-11-09T21:52:11.293Z,100298.19
2022-11-09T21:54:37.600Z,100295.94
2022-11-09T21:57:03.863Z,100300.78
2022-11-09T21:59:30.123Z,100307.50
2022-11-09T22:01:56.444Z,100305.78
2022-11-09T22:04:22.752Z,100318.53
2022-11-09T22:06:49.035Z,100316.91
2022-11-09T22:09:15.395Z,100334.44
2022-11-09T22:12:00.209Z,100333.47
2022-11-09T22:14:44.966Z,100331.25
2022-11-09T22:17:12.435Z,100341.44
2022-11-09T22:19:57.201Z,100342.34
2022-11-09T22:22:23.465Z,100350.63
2022-11-09T22:24:51.718Z,100352.66
2022-11-09T22:27:17.976Z,100344.78
2022-11-09T22:29:44.304Z,100353.69
2022-11-09T22:32:10.565Z,100352.34
2022-11-09T22:34:36.847Z,100354.38
2022-11-09T22:37:03.105Z,100347.63
2022-11-09T22:39:29.379Z,100344.59
2022-11-09T22:41:55.640Z,100327.28
2022-11-09T22:44:21.914Z,100328.78
2022-11-09T22:46:48.170Z,100326.22
2022-11-09T22:49:14.463Z,100319.09
2022-11-09T22:51:40.734Z,100340.16
2022-11-09T22:54:07.008Z,100328.78
2022-11-09T22:56:33.293Z,100341.16
2022-11-09T22:58:59.577Z,100328.56
2022-11-09T23:01:25.924Z,100335.00
2022-11-09T23:03:52.282Z,100337.81
2022-11-09T23:06:21.271Z,100335.22
2022-11-09T23:08:47.535Z,100333.63
2022-11-09T23:11:13.795Z,100335.88
2022-11-09T23:13:40.046Z,100339.09
2022-11-09T23:16:06.302Z,100346.22
2022-11-09T23:18:51.271Z,100345.59
2022-11-09T23:21:17.544Z,100357.72
2022-11-09T23:23:43.812Z,100369.72
2022-11-09T23:26:10.069Z,100369.81
2022-11-09T23:28:36.354Z,100367.69
2022-11-09T23:31:02.655Z,100380.28
2022-11-09T23:33:28.912Z,100384.00
2022-11-09T23:35:55.240Z,100373.91
2022-11-09T23:38:21.511Z,100377.56
2022-11-09T23:40:47.794Z,100382.72
2022-11-09T23:43:14.112Z,100390.53
2022-11-09T23:45:40.402Z,100387.75
2022-11-09T23:48:06.652Z,100386.78
2022-11-09T23:50:33.130Z,100386.16
2022-11-09T23:52:59.387Z,100397.75
2022-11-09T23:55:25.659Z,100397.13
2022-11-09T23:57:51.932Z,100404.00
